Time;durP1;ratioP1;P1;durP2;ratioP2;P2;SDS_P1;SDS_P2;PMS_P1;PMS_P2;Temp;Humidity;BMP_temperature;BMP_pressure;BME280_temperature;BME280_humidity;BME280_pressure;Samples;Min_cycle;Max_cycle;Signal;HPM_P1;HPM_P2
2023/12/05 00:00:39;;;;;;;21.47;11.53;;;;;;;-143.21;80.49;73891.09;5030884;28;20199;-84
2023/12/05 00:03:05;;;;;;;20.43;11.50;;;;;;;-143.21;80.84;73891.09;5031125;28;20214;-83
2023/12/05 00:05:32;;;;;;;19.07;11.50;;;;;;;-143.21;80.73;73897.03;5031320;28;20689;-84
2023/12/05 00:07:59;;;;;;;18.77;11.47;;;;;;;-143.21;80.92;73891.09;5031474;28;20629;-83
2023/12/05 00:10:26;;;;;;;23.33;11.83;;;;;;;-143.21;80.84;73885.13;5028629;28;20205;-83
2023/12/05 00:12:53;;;;;;;19.37;11.47;;;;;;;-143.21;81.30;73891.09;5031246;28;20195;-83
2023/12/05 00:15:20;;;;;;;24.13;11.73;;;;;;;-143.21;80.83;73881.16;5031106;28;20210;-83
2023/12/05 00:17:48;;;;;;;22.53;11.73;;;;;;;-143.21;80.84;73871.25;5031319;28;20312;-83
2023/12/05 00:20:15;;;;;;;29.17;14.77;;;;;;;-143.21;79.24;73887.13;5031851;28;20703;-84
2023/12/05 00:22:42;;;;;;;30.93;16.20;;;;;;;-143.21;78.29;73922.84;5030468;28;20229;-84
2023/12/05 00:25:10;;;;;;;31.57;17.20;;;;;;;-143.21;78.32;73934.72;5030141;28;20203;-81
2023/12/05 00:27:37;;;;;;;29.53;16.93;;;;;;;-143.21;78.18;73948.63;5030065;28;21396;-82
2023/12/05 00:30:05;;;;;;;33.43;17.17;;;;;;;-143.21;77.69;73956.56;5029594;28;20194;-81
2023/12/05 00:32:32;;;;;;;33.63;17.70;;;;;;;-143.21;77.42;73980.38;5028752;28;20199;-82
2023/12/05 00:35:00;;;;;;;28.97;16.90;;;;;;;-143.21;77.65;73994.25;5028393;28;20227;-80
2023/12/05 00:37:27;;;;;;;34.33;17.63;;;;;;;-143.21;78.17;73994.25;5028370;28;20692;-81
2023/12/05 00:39:54;;;;;;;29.20;16.63;;;;;;;-143.21;78.35;73986.31;5029604;28;20991;-81
2023/12/05 00:42:21;;;;;;;31.90;16.87;;;;;;;-143.21;78.30;73992.28;5028198;28;20223;-81
2023/12/05 00:44:47;;;;;;;31.10;17.23;;;;;;;-143.21;78.19;73996.25;5027532;28;20272;-81
2023/12/05 00:47:14;;;;;;;30.27;17.00;;;;;;;-143.21;78.42;73996.25;5028103;28;20207;-81
2023/12/05 00:49:41;;;;;;;31.47;16.60;;;;;;;-143.21;78.80;73988.31;5028372;28;20207;-81
2023/12/05 00:52:09;;;;;;;30.50;16.17;;;;;;;-143.21;79.19;73984.34;5028731;28;20203;-82
2023/12/05 00:54:36;;;;;;;29.93;15.90;;;;;;;-143.21;79.02;73980.38;5028031;28;20206;-81
2023/12/05 00:57:03;;;;;;;29.77;16.27;;;;;;;-143.21;79.06;73976.41;5028067;28;20687;-82
2023/12/05 00:59:30;;;;;;;31.70;16.47;;;;;;;-143.21;79.11;73972.44;5027079;28;20230;-82
2023/12/05 01:01:56;;;;;;;26.63;15.20;;;;;;;-143.21;79.20;73960.53;5027619;28;20203;-82
2023/12/05 01:04:23;;;;;;;27.30;15.50;;;;;;;-143.21;79.50;73960.53;5030662;28;20689;-82
2023/12/05 01:06:50;;;;;;;29.33;15.70;;;;;;;-143.21;79.61;73950.59;5030905;28;20210;-82
2023/12/05 01:09:21;;;;;;;20.27;12.47;;;;;;;-143.21;79.97;73938.69;5031675;28;21416;-83
2023/12/05 01:11:48;;;;;;;14.87;9.70;;;;;;;-143.21;80.78;73930.75;5033179;28;21106;-83
2023/12/05 01:14:14;;;;;;;14.60;9.63;;;;;;;-143.21;81.00;73916.88;5032473;28;20208;-82
2023/12/05 01:16:43;;;;;;;13.97;9.00;;;;;;;-143.21;81.17;73912.91;5031072;28;20622;-82
2023/12/05 01:19:10;;;;;;;16.03;8.80;;;;;;;-143.21;81.34;73901.00;5031115;28;20222;-82
2023/12/05 01:21:37;;;;;;;12.47;8.40;;;;;;;-143.21;81.24;73883.16;5030986;28;20202;-81
2023/12/05 01:24:04;;;;;;;11.87;8.33;;;;;;;-143.21;80.52;73867.28;5032194;28;20199;-83
2023/12/05 01:26:32;;;;;;;13.47;8.50;;;;;;;-143.21;79.77;73857.34;5031005;28;20548;-80
2023/12/05 01:28:59;;;;;;;12.60;8.27;;;;;;;-143.21;78.96;73853.38;5031171;28;20666;-83
2023/12/05 01:31:26;;;;;;;12.20;8.23;;;;;;;-143.21;78.33;73857.34;5032042;28;20213;-83
2023/12/05 01:33:52;;;;;;;13.07;8.23;;;;;;;-143.21;78.03;73853.38;5032987;28;20207;-82
2023/12/05 01:36:19;;;;;;;12.50;8.27;;;;;;;-143.21;77.85;73859.34;5031387;28;20234;-82
2023/12/05 01:38:46;;;;;;;13.33;8.10;;;;;;;-143.21;76.98;73853.38;5030302;28;20230;-82
2023/12/05 01:41:13;;;;;;;11.03;7.60;;;;;;;-143.21;76.61;73845.44;5030788;28;20199;-82
2023/12/05 01:43:41;;;;;;;12.73;7.67;;;;;;;-143.21;76.12;73847.44;5030493;28;20211;-81
2023/12/05 01:46:08;;;;;;;15.17;8.23;;;;;;;-143.21;75.43;73843.47;5031189;28;20199;-82
2023/12/05 01:48:35;;;;;;;14.33;7.80;;;;;;;-143.21;74.96;73841.47;5030860;28;20208;-83
2023/12/05 01:51:04;;;;;;;14.27;7.90;;;;;;;-143.21;74.93;73835.53;5030618;28;20207;-84
2023/12/05 01:53:33;;;;;;;11.50;8.10;;;;;;;-143.21;74.28;73819.66;5028005;28;20225;-83
2023/12/05 01:56:00;;;;;;;12.37;8.23;;;;;;;-143.21;74.25;73811.72;5032405;28;20225;-82
2023/12/05 01:58:28;;;;;;;12.23;7.77;;;;;;;-143.21;73.67;73809.75;5031282;28;20199;-82
2023/12/05 02:00:57;;;;;;;10.97;7.60;;;;;;;-143.21;73.43;73811.72;5030688;28;20203;-83
2023/12/05 02:03:24;;;;;;;13.47;8.03;;;;;;;-143.21;73.65;73819.66;5030387;28;20214;-83
2023/12/05 02:05:51;;;;;;;12.73;7.70;;;;;;;-143.21;73.15;73829.56;5030538;28;20206;-83
2023/12/05 02:08:18;;;;;;;12.40;7.77;;;;;;;-143.21;72.88;73815.69;5031701;28;20215;-83
2023/12/05 02:10:45;;;;;;;11.50;7.83;;;;;;;-143.21;72.90;73819.66;5030409;28;20253;-82
2023/12/05 02:13:13;;;;;;;12.97;7.90;;;;;;;-143.21;72.46;73815.69;5039062;28;20207;-82
2023/12/05 02:15:40;;;;;;;13.67;7.67;;;;;;;-143.21;72.16;73805.78;5036943;28;20827;-81
2023/12/05 02:18:15;;;;;;;12.47;8.13;;;;;;;-143.21;72.06;73801.81;5038962;28;20202;-83
2023/12/05 02:20:50;;;;;;;11.57;7.63;;;;;;;-143.21;72.33;73803.78;5042195;28;20219;-82
2023/12/05 02:23:33;;;;;;;11.90;7.17;;;;;;;-143.21;71.73;73801.81;5036140;28;20234;-82
2023/12/05 02:26:09;;;;;;;13.67;8.17;;;;;;;-143.21;71.26;73779.97;5029485;28;20215;-82
2023/12/05 02:28:37;;;;;;;12.97;7.63;;;;;;;-143.21;71.44;73776.00;5028198;28;20217;-82
2023/12/05 02:31:04;;;;;;;13.00;7.83;;;;;;;-143.21;71.83;73770.06;5034227;28;20210;-82
2023/12/05 02:33:31;;;;;;;10.40;7.40;;;;;;;-143.21;71.82;73770.06;5024368;28;20207;-82
2023/12/05 02:36:04;;;;;;;12.20;7.93;;;;;;;-143.21;71.54;73766.09;5024095;28;20598;-81
2023/12/05 02:38:45;;;;;;;11.47;7.70;;;;;;;-143.21;71.54;73760.13;5032325;28;20203;-82
2023/12/05 02:41:16;;;;;;;11.40;7.33;;;;;;;-143.21;71.54;73764.09;5033608;28;20215;-81
2023/12/05 02:43:47;;;;;;;13.73;7.60;;;;;;;-143.21;71.73;73762.13;5037114;28;20212;-81
2023/12/05 02:46:17;;;;;;;12.50;7.27;;;;;;;-143.21;72.23;73764.09;5020099;28;20203;-81
2023/12/05 02:48:45;;;;;;;12.43;7.90;;;;;;;-143.21;72.18;73772.03;5021288;28;20211;-81
2023/12/05 02:51:12;;;;;;;12.90;8.17;;;;;;;-143.21;72.33;73764.09;5031383;28;20596;-81
2023/12/05 02:53:39;;;;;;;11.07;7.77;;;;;;;-143.21;72.35;73758.16;5028796;28;20257;-81
2023/12/05 02:56:06;;;;;;;11.97;7.90;;;;;;;-143.21;72.25;73752.19;5033698;28;20207;-81
2023/12/05 02:58:33;;;;;;;13.10;7.77;;;;;;;-143.21;71.58;73742.28;5037984;28;20574;-83
2023/12/05 03:01:02;;;;;;;11.40;7.20;;;;;;;-143.21;70.77;73744.25;5036868;28;20593;-82
2023/12/05 03:03:29;;;;;;;11.83;7.53;;;;;;;-143.21;71.26;73746.25;5030565;28;20197;-81
2023/12/05 03:05:56;;;;;;;14.47;7.80;;;;;;;-143.21;70.82;73750.22;5032686;28;20211;-82
2023/12/05 03:08:23;;;;;;;11.37;7.03;;;;;;;-143.21;71.15;73766.09;5036002;28;20215;-82
2023/12/05 03:10:50;;;;;;;11.20;7.70;;;;;;;-143.21;71.18;73762.13;5032855;28;20725;-81
2023/12/05 03:13:16;;;;;;;10.50;7.13;;;;;;;-143.21;71.24;73766.09;5028579;28;20657;-81
2023/12/05 03:15:43;;;;;;;12.80;7.63;;;;;;;-143.21;71.45;73766.09;5028454;28;20665;-82
2023/12/05 03:18:11;;;;;;;13.10;7.93;;;;;;;-143.21;71.75;73781.97;5030501;28;20583;-82
2023/12/05 03:20:38;;;;;;;13.07;8.20;;;;;;;-143.21;71.93;73781.97;5028643;28;20225;-83
2023/12/05 03:23:05;;;;;;;12.03;7.63;;;;;;;-143.21;71.63;73772.03;5032670;28;20199;-83
2023/12/05 03:25:32;;;;;;;10.73;7.50;;;;;;;-143.21;71.62;73774.03;5029235;28;20211;-82
2023/12/05 03:27:58;;;;;;;12.83;7.50;;;;;;;-143.21;71.60;73758.16;5029478;28;20202;-82
2023/12/05 03:30:25;;;;;;;13.73;8.10;;;;;;;-143.21;72.10;73791.88;5029010;28;20219;-82
2023/12/05 03:32:52;;;;;;;15.63;8.47;;;;;;;-143.21;72.26;73783.94;5028754;28;20223;-83
2023/12/05 03:35:20;;;;;;;14.77;8.50;;;;;;;-143.21;72.52;73778.00;5027978;28;20664;-83
2023/12/05 03:37:47;;;;;;;15.37;8.40;;;;;;;-143.21;72.26;73768.06;5028812;28;20210;-81
2023/12/05 03:40:14;;;;;;;14.47;9.07;;;;;;;-143.21;72.12;73764.09;5029897;28;20231;-81
2023/12/05 03:42:41;;;;;;;13.63;8.20;;;;;;;-143.21;71.87;73764.09;5028503;28;20207;-82
2023/12/05 03:45:08;;;;;;;12.87;8.40;;;;;;;-143.21;71.66;73770.06;5028237;28;20217;-82
2023/12/05 03:47:35;;;;;;;12.03;8.20;;;;;;;-143.21;71.99;73776.00;5027956;28;20207;-81
2023/12/05 03:50:02;;;;;;;12.43;8.13;;;;;;;-143.21;71.60;73760.13;5028678;28;20206;-82
2023/12/05 03:52:30;;;;;;;12.50;8.30;;;;;;;-143.21;71.57;73789.91;5028359;28;20210;-83
2023/12/05 03:54:57;;;;;;;14.13;7.80;;;;;;;-143.21;71.66;73787.91;5027555;28;20217;-79
2023/12/05 03:57:24;;;;;;;14.63;7.40;;;;;;;-143.21;72.16;73799.81;5026095;28;20215;-78
2023/12/05 03:59:50;;;;;;;13.43;7.90;;;;;;;-143.21;72.02;73793.88;5025333;28;20238;-78
2023/12/05 04:02:17;;;;;;;12.43;8.13;;;;;;;-143.21;72.08;73783.94;5027160;28;20720;-79
2023/12/05 04:04:44;;;;;;;12.07;7.50;;;;;;;-143.21;71.00;73779.97;5024392;28;20620;-78
2023/12/05 04:07:11;;;;;;;13.43;8.03;;;;;;;-143.21;70.55;73781.97;5023190;28;20213;-78
2023/12/05 04:09:38;;;;;;;13.10;7.50;;;;;;;-143.21;70.47;73774.03;5025017;28;20309;-78
2023/12/05 04:12:06;;;;;;;12.70;7.60;;;;;;;-143.21;70.49;73770.06;5026744;28;20231;-79
2023/12/05 04:14:32;;;;;;;11.70;7.97;;;;;;;-143.21;70.84;73770.06;5025663;28;20677;-78
2023/12/05 04:16:59;;;;;;;11.93;7.83;;;;;;;-143.21;70.96;73776.00;5025780;28;20230;-79
2023/12/05 04:19:26;;;;;;;11.77;7.60;;;;;;;-143.21;70.62;73779.97;5024635;28;20219;-78
2023/12/05 04:21:53;;;;;;;15.13;8.07;;;;;;;-143.21;71.02;73776.00;5025786;28;20214;-78
2023/12/05 04:24:20;;;;;;;11.20;7.47;;;;;;;-143.21;71.64;73764.09;5026094;28;20218;-78
2023/12/05 04:26:48;;;;;;;12.03;7.93;;;;;;;-143.21;71.36;73764.09;5025666;28;20540;-78
2023/12/05 04:29:15;;;;;;;16.40;7.70;;;;;;;-143.21;71.26;73764.09;5024918;28;20210;-78
2023/12/05 04:31:42;;;;;;;11.37;7.50;;;;;;;-143.21;71.71;73768.06;5025436;28;20207;-78
2023/12/05 04:34:09;;;;;;;17.13;7.67;;;;;;;-143.21;72.15;73768.06;5027434;28;20631;-78
2023/12/05 04:36:35;;;;;;;12.27;8.00;;;;;;;-143.21;72.41;73774.03;5026780;28;20952;-78
2023/12/05 04:39:04;;;;;;;12.13;8.07;;;;;;;-143.21;71.97;73758.16;5029046;28;20222;-78
2023/12/05 04:41:33;;;;;;;12.10;8.10;;;;;;;-143.21;71.60;73750.22;5026750;28;20342;-79
2023/12/05 04:44:02;;;;;;;13.07;8.37;;;;;;;-143.21;71.88;73760.13;5027105;28;20204;-80
2023/12/05 04:46:30;;;;;;;13.33;8.43;;;;;;;-143.21;71.69;73758.16;5030745;28;20211;-78
2023/12/05 04:48:57;;;;;;;14.53;7.90;;;;;;;-143.21;71.64;73758.16;5028488;28;20210;-78
2023/12/05 04:51:24;;;;;;;12.33;8.27;;;;;;;-143.21;71.77;73762.13;5028878;28;20245;-79
2023/12/05 04:53:51;;;;;;;11.57;7.60;;;;;;;-143.21;71.78;73766.09;5028386;28;20210;-79
2023/12/05 04:56:18;;;;;;;15.23;7.90;;;;;;;-143.21;71.94;73770.06;5031065;28;20210;-79
2023/12/05 04:58:44;;;;;;;11.70;7.63;;;;;;;-143.21;71.71;73770.06;5028495;28;20207;-79
2023/12/05 05:01:13;;;;;;;14.97;8.57;;;;;;;-143.21;71.70;73770.06;5028876;28;20226;-79
2023/12/05 05:03:39;;;;;;;14.20;8.30;;;;;;;-143.21;72.54;73770.06;5028667;28;20617;-81
2023/12/05 05:06:06;;;;;;;13.10;8.47;;;;;;;-143.21;72.89;73764.09;5029267;28;20568;-76
2023/12/05 05:08:33;;;;;;;17.70;8.77;;;;;;;-143.21;72.49;73776.00;5027666;28;20701;-76
2023/12/05 05:11:00;;;;;;;12.87;8.43;;;;;;;-143.21;72.04;73768.06;5022259;28;20650;-77
2023/12/05 05:13:27;;;;;;;14.73;9.03;;;;;;;-143.21;71.86;73768.06;5012537;28;20230;-76
2023/12/05 05:15:54;;;;;;;14.13;9.37;;;;;;;-143.21;71.87;73770.06;5022395;28;20619;-76
2023/12/05 05:18:22;;;;;;;16.87;9.97;;;;;;;-143.21;71.89;73779.97;5026677;28;20380;-76
2023/12/05 05:20:49;;;;;;;17.13;10.07;;;;;;;-143.21;72.11;73785.94;5022066;28;20234;-76
2023/12/05 05:23:16;;;;;;;19.17;12.00;;;;;;;-143.21;71.11;73770.06;5015481;28;20276;-76
2023/12/05 05:25:43;;;;;;;22.60;13.60;;;;;;;-143.21;71.30;73785.94;5017057;28;20206;-77
2023/12/05 05:28:10;;;;;;;21.87;13.27;;;;;;;-143.21;71.84;73781.97;5026710;28;20213;-76
2023/12/05 05:30:37;;;;;;;18.47;11.77;;;;;;;-143.21;72.42;73783.94;5017057;28;20580;-77
2023/12/05 05:33:04;;;;;;;18.27;11.97;;;;;;;-143.21;71.83;73778.00;5018056;28;20207;-76
2023/12/05 05:35:32;;;;;;;19.87;11.50;;;;;;;-143.21;71.85;73774.03;5016170;28;20199;-76
2023/12/05 05:37:59;;;;;;;24.90;12.63;;;;;;;-143.21;72.23;73776.00;5017704;28;21177;-76
2023/12/05 05:40:27;;;;;;;23.93;11.60;;;;;;;-143.21;72.43;73781.97;5018408;28;20223;-77
2023/12/05 05:42:54;;;;;;;15.83;9.07;;;;;;;-143.21;72.25;73776.00;5016057;28;20768;-76
2023/12/05 05:45:21;;;;;;;15.13;9.53;;;;;;;-143.21;71.47;73764.09;5020145;28;20636;-76
2023/12/05 05:47:47;;;;;;;17.30;10.20;;;;;;;-143.21;71.10;73744.25;5020932;28;20880;-75
2023/12/05 05:50:14;;;;;;;19.07;11.73;;;;;;;-143.21;70.86;73744.25;5016784;28;20196;-76
2023/12/05 05:52:43;;;;;;;20.10;12.70;;;;;;;-143.21;71.33;73762.13;5016158;28;20207;-75
2023/12/05 05:55:10;;;;;;;22.47;13.50;;;;;;;-143.21;71.83;73760.13;5020167;28;20729;-76
2023/12/05 05:57:37;;;;;;;25.93;15.00;;;;;;;-143.21;72.04;73756.16;5019274;28;20227;-80
2023/12/05 06:00:04;;;;;;;25.10;14.33;;;;;;;-143.21;72.10;73746.25;5020872;28;20219;-77
2023/12/05 06:02:31;;;;;;;28.67;15.17;;;;;;;-143.21;72.44;73736.34;5020403;28;20195;-75
2023/12/05 06:04:58;;;;;;;23.30;14.33;;;;;;;-143.21;72.07;73732.38;5015919;28;20207;-75
2023/12/05 06:07:25;;;;;;;28.53;15.97;;;;;;;-143.21;71.83;73722.44;5015152;28;20280;-77
2023/12/05 06:09:53;;;;;;;29.30;15.60;;;;;;;-143.21;71.85;73718.47;5015032;28;20545;-75
2023/12/05 06:12:21;;;;;;;29.47;17.83;;;;;;;-143.21;70.59;73714.50;5028683;28;20257;-76
2023/12/05 06:14:47;;;;;;;31.47;18.13;;;;;;;-143.21;71.16;73712.53;5023761;28;20218;-76
2023/12/05 06:17:14;;;;;;;37.53;20.00;;;;;;;-143.21;71.50;73714.50;5026897;28;20242;-76
2023/12/05 06:19:41;;;;;;;47.33;23.17;;;;;;;-143.21;71.13;73718.47;5026860;28;20651;-75
2023/12/05 06:22:08;;;;;;;41.40;24.50;;;;;;;-143.21;71.12;73726.41;5028395;28;20300;-76
2023/12/05 06:24:35;;;;;;;49.77;25.33;;;;;;;-143.21;71.27;73720.47;5028064;28;20318;-75
2023/12/05 06:27:04;;;;;;;58.77;31.57;;;;;;;-143.21;71.36;73708.56;5027051;28;20202;-76
2023/12/05 06:29:32;;;;;;;67.77;34.97;;;;;;;-143.21;71.37;73738.31;5023467;28;20214;-75
2023/12/05 06:31:58;;;;;;;103.13;60.83;;;;;;;-143.21;71.18;73732.38;5026705;28;20211;-75
2023/12/05 06:34:26;;;;;;;111.03;63.10;;;;;;;-143.21;71.63;73734.34;5029534;28;20202;-75
2023/12/05 06:36:53;;;;;;;75.27;42.57;;;;;;;-143.21;71.77;73734.34;5026525;28;20210;-76
2023/12/05 06:39:20;;;;;;;45.30;26.77;;;;;;;-143.21;71.72;73732.38;5026411;28;20478;-75
2023/12/05 06:41:46;;;;;;;30.00;17.33;;;;;;;-143.21;72.17;73744.25;5026628;28;20261;-75
2023/12/05 06:44:15;;;;;;;32.80;17.77;;;;;;;-143.21;71.79;73744.25;5027957;28;20693;-75
2023/12/05 06:46:41;;;;;;;21.10;13.37;;;;;;;-143.21;72.25;73744.25;5027597;28;20670;-76
2023/12/05 06:49:08;;;;;;;24.53;13.03;;;;;;;-143.21;72.15;73752.19;5026200;28;20202;-77
2023/12/05 06:51:35;;;;;;;21.33;12.47;;;;;;;-143.21;72.76;73746.25;5026629;28;20195;-75
2023/12/05 06:54:02;;;;;;;23.13;12.07;;;;;;;-143.21;72.59;73738.31;5025867;28;20218;-74
2023/12/05 06:56:29;;;;;;;22.83;11.80;;;;;;;-143.21;72.69;73742.28;5028371;28;20222;-75
2023/12/05 06:58:56;;;;;;;23.60;12.20;;;;;;;-143.21;72.04;73714.50;5023403;28;20207;-75
2023/12/05 07:01:24;;;;;;;20.10;11.67;;;;;;;-143.21;72.01;73706.56;5026195;28;20256;-75
2023/12/05 07:03:51;;;;;;;18.00;11.70;;;;;;;-143.21;71.44;73694.66;5025998;28;20222;-75
2023/12/05 07:06:18;;;;;;;20.97;11.37;;;;;;;-143.21;71.57;73684.75;5027996;28;20215;-76
2023/12/05 07:08:45;;;;;;;19.47;11.73;;;;;;;-143.21;71.45;73674.81;5026064;28;20228;-75
2023/12/05 07:11:12;;;;;;;26.87;14.17;;;;;;;-143.21;71.17;73656.97;5025447;28;20612;-74
2023/12/05 07:13:39;;;;;;;36.47;20.67;;;;;;;-143.21;70.53;73655.00;5025200;28;20233;-76
2023/12/05 07:16:06;;;;;;;39.27;21.73;;;;;;;-143.21;70.59;73660.94;5025894;28;20293;-75
2023/12/05 07:18:34;;;;;;;51.67;29.63;;;;;;;-143.21;70.20;73670.84;5026601;28;20941;-75
2023/12/05 07:21:01;;;;;;;54.90;30.07;;;;;;;-143.21;70.69;73668.88;5026232;28;20234;-75
2023/12/05 07:23:28;;;;;;;47.00;26.10;;;;;;;-143.21;70.90;73670.84;5022926;28;20202;-74
2023/12/05 07:25:56;;;;;;;30.80;17.90;;;;;;;-143.21;71.02;73670.84;5026040;28;20694;-75
2023/12/05 07:28:23;;;;;;;41.27;21.70;;;;;;;-143.21;70.76;73664.91;5027769;28;20724;-74
2023/12/05 07:30:50;;;;;;;42.47;22.80;;;;;;;-143.21;71.00;73658.97;5025096;28;20214;-75
2023/12/05 07:33:17;;;;;;;42.07;22.20;;;;;;;-143.21;70.29;73649.03;5025276;28;20203;-75
2023/12/05 07:35:45;;;;;;;39.83;23.57;;;;;;;-143.21;70.65;73660.94;5025160;28;20576;-75
2023/12/05 07:38:11;;;;;;;51.13;27.07;;;;;;;-143.21;70.42;73666.88;5026628;28;20684;-75
2023/12/05 07:40:38;;;;;;;53.80;25.73;;;;;;;-143.21;70.47;73672.84;5026997;28;20227;-74
2023/12/05 07:43:05;;;;;;;56.70;28.17;;;;;;;-143.21;70.89;73676.81;5025835;28;20318;-75
2023/12/05 07:45:32;;;;;;;58.77;26.07;;;;;;;-143.21;71.57;73700.63;5025107;28;20212;-75
2023/12/05 07:47:59;;;;;;;44.00;23.90;;;;;;;-143.21;72.29;73720.47;5028348;28;20214;-85
2023/12/05 07:50:26;;;;;;;53.97;23.33;;;;;;;-143.21;72.41;73720.47;5030625;28;20199;-81
2023/12/05 07:52:54;;;;;;;36.20;19.57;;;;;;;-143.21;72.29;73726.41;5028963;28;20214;-83
2023/12/05 07:55:21;;;;;;;33.63;18.53;;;;;;;-143.21;73.28;73742.28;5029485;28;20216;-83
2023/12/05 07:57:48;;;;;;;38.07;19.97;;;;;;;-143.21;73.78;73744.25;5027044;28;20199;-83
2023/12/05 08:00:16;;;;;;;37.67;22.17;;;;;;;-143.21;73.93;73720.47;5027726;28;20235;-83
2023/12/05 08:02:46;;;;;;;39.97;20.80;;;;;;;-143.21;73.37;73704.59;5028568;28;20340;-81
2023/12/05 08:05:15;;;;;;;30.17;16.53;;;;;;;-143.21;73.12;73694.66;5023393;28;20196;-82
2023/12/05 08:07:43;;;;;;;25.87;15.07;;;;;;;-143.21;72.65;73688.72;5025806;28;20196;-81
2023/12/05 08:10:11;;;;;;;32.47;15.93;;;;;;;-143.21;72.26;73674.81;5021771;28;20293;-81
2023/12/05 08:12:38;;;;;;;30.07;15.57;;;;;;;-143.21;71.10;73668.88;5004478;28;20257;-82
2023/12/05 08:15:06;;;;;;;31.03;16.77;;;;;;;-143.21;71.37;73678.78;4998568;28;20202;-81
2023/12/05 08:17:33;;;;;;;32.17;17.83;;;;;;;-143.21;71.13;73678.78;5007917;28;20203;-82
2023/12/05 08:20:00;;;;;;;32.13;18.40;;;;;;;-143.21;71.76;73684.75;4992529;28;20209;-83
2023/12/05 08:22:52;;;;;;;31.53;17.27;;;;;;;-143.21;72.07;73658.97;5007775;28;20608;-87
2023/12/05 08:25:21;;;;;;;35.13;16.77;;;;;;;-143.21;71.63;73647.06;5006080;28;21065;-86
2023/12/05 08:27:49;;;;;;;31.23;16.73;;;;;;;-143.21;71.13;73633.16;5001129;28;20218;-85
2023/12/05 08:30:16;;;;;;;26.13;15.87;;;;;;;-143.21;70.86;73631.19;5000808;28;20201;-85
2023/12/05 08:32:43;;;;;;;29.77;15.50;;;;;;;-143.21;70.81;73615.31;5003680;28;20204;-85
2023/12/05 08:35:10;;;;;;;29.30;16.20;;;;;;;-143.21;70.06;73593.50;5001091;28;20552;-89
2023/12/05 08:37:37;;;;;;;28.97;15.93;;;;;;;-143.21;69.11;73575.63;5008389;28;20210;-83
2023/12/05 08:40:05;;;;;;;25.07;15.27;;;;;;;-143.21;69.13;73563.72;5004764;28;20238;-84
2023/12/05 08:42:33;;;;;;;26.90;15.00;;;;;;;-143.21;68.69;73549.84;5015855;28;20219;-85
2023/12/05 08:45:00;;;;;;;28.00;14.50;;;;;;;-143.21;69.14;73541.91;5015226;28;20222;-80
2023/12/05 08:47:27;;;;;;;24.77;14.20;;;;;;;-143.21;68.68;73535.94;5015298;28;20198;-87
2023/12/05 08:49:54;;;;;;;25.47;12.93;;;;;;;-143.21;68.38;73522.06;5015490;28;20563;-85
2023/12/05 08:52:21;;;;;;;26.73;12.53;;;;;;;-143.21;68.00;73514.13;5015304;28;20619;-85
2023/12/05 08:54:48;;;;;;;23.77;12.97;;;;;;;-143.21;67.72;73514.13;5015424;28;20209;-84
2023/12/05 08:57:15;;;;;;;26.53;12.77;;;;;;;-143.21;67.51;73502.22;5015453;28;20305;-86
2023/12/05 08:59:43;;;;;;;27.80;13.83;;;;;;;-143.21;67.42;73494.28;5015318;28;20274;-86
2023/12/05 09:02:10;;;;;;;33.83;18.60;;;;;;;-143.21;66.56;73480.41;5014424;28;20219;-86
2023/12/05 09:04:37;;;;;;;37.97;20.93;;;;;;;-143.21;66.89;73478.41;5014991;28;20198;-86
2023/12/05 09:07:05;;;;;;;39.47;22.80;;;;;;;-143.21;67.26;73476.44;5015469;28;20203;-85
2023/12/05 09:09:32;;;;;;;40.23;20.33;;;;;;;-143.21;67.18;73466.53;5016295;28;20202;-86
2023/12/05 09:12:00;;;;;;;42.77;20.43;;;;;;;-143.21;66.81;73464.53;5028964;28;20234;-86
2023/12/05 09:14:26;;;;;;;39.03;21.10;;;;;;;-143.21;66.98;73452.63;5033662;28;20183;-86
2023/12/05 09:16:55;;;;;;;52.63;22.13;;;;;;;-143.21;67.06;73444.69;5015569;28;20296;-86
2023/12/05 09:19:22;;;;;;;44.10;22.90;;;;;;;-143.21;66.94;73426.84;5015233;28;20206;-85
2023/12/05 09:21:52;;;;;;;39.33;19.37;;;;;;;-143.21;65.80;73407.00;5014830;28;20285;-86
2023/12/05 09:24:19;;;;;;;38.90;20.27;;;;;;;-143.21;65.65;73395.09;5014939;28;20234;-86
2023/12/05 09:26:46;;;;;;;38.03;19.50;;;;;;;-143.21;64.76;73379.22;5015148;28;20191;-85
2023/12/05 09:29:13;;;;;;;37.20;20.13;;;;;;;-143.21;65.28;73373.28;5015746;28;20199;-86
2023/12/05 09:31:40;;;;;;;35.63;20.30;;;;;;;-143.21;64.92;73353.44;5035226;28;20198;-85
2023/12/05 09:34:08;;;;;;;40.40;20.80;;;;;;;-143.21;64.88;73335.59;5035196;28;20195;-86
2023/12/05 09:36:35;;;;;;;39.60;20.03;;;;;;;-143.21;64.74;73313.78;5035216;28;20191;-87
2023/12/05 09:39:03;;;;;;;32.27;19.30;;;;;;;-143.21;64.52;73293.94;5034708;28;20198;-86
2023/12/05 09:41:30;;;;;;;31.50;18.50;;;;;;;-143.21;63.78;73270.13;5035242;28;20588;-85
2023/12/05 09:44:01;;;;;;;33.77;17.03;;;;;;;-143.21;62.42;73276.06;5034916;28;20205;-85
2023/12/05 09:46:31;;;;;;;35.60;18.97;;;;;;;-143.21;62.31;73293.94;5034854;28;20268;-85
2023/12/05 09:49:02;;;;;;;32.33;18.53;;;;;;;-143.21;63.11;73284.00;5035140;28;20198;-85
2023/12/05 09:51:31;;;;;;;33.77;17.23;;;;;;;-143.21;62.97;73260.22;5036378;28;20190;-85
2023/12/05 09:53:59;;;;;;;31.40;15.93;;;;;;;-143.21;62.19;73226.50;5037357;28;20195;-84
2023/12/05 09:56:27;;;;;;;29.10;15.13;;;;;;;-143.21;61.55;73200.69;5034734;28;20190;-85
2023/12/05 09:58:55;;;;;;;30.63;15.70;;;;;;;-143.21;61.54;73174.91;5034067;28;20199;-85
2023/12/05 10:01:23;;;;;;;30.83;16.67;;;;;;;-143.21;60.44;73137.22;5034614;28;20227;-84
2023/12/05 10:03:57;;;;;;;32.40;16.37;;;;;;;-143.21;58.74;73101.53;5034482;28;20194;-84
2023/12/05 10:06:26;;;;;;;32.60;17.20;;;;;;;-143.21;58.12;73067.78;5033906;28;20205;-84
2023/12/05 10:08:56;;;;;;;32.03;17.77;;;;;;;-143.21;56.95;73051.94;5034229;28;20902;-85
2023/12/05 10:11:25;;;;;;;34.67;17.77;;;;;;;-143.21;56.84;73065.81;5035122;28;20230;-85
2023/12/05 10:13:52;;;;;;;34.27;17.43;;;;;;;-143.21;57.42;73079.69;5037771;28;20187;-85
2023/12/05 10:16:22;;;;;;;33.90;16.57;;;;;;;-143.21;57.70;73087.63;5035531;28;20210;-85
2023/12/05 10:18:49;;;;;;;33.67;16.13;;;;;;;-143.21;58.62;73089.63;5034336;28;20194;-85
2023/12/05 10:21:16;;;;;;;35.17;15.97;;;;;;;-143.21;59.07;73085.66;5034254;28;20662;-85
2023/12/05 10:23:43;;;;;;;26.73;15.53;;;;;;;-143.21;59.23;73085.66;5035537;28;20194;-84
2023/12/05 10:26:11;;;;;;;36.10;13.13;;;;;;;-143.21;59.47;73063.84;5035079;28;20202;-85
2023/12/05 10:28:49;;;;;;;22.20;12.90;;;;;;;-143.21;59.49;73040.03;5034092;28;20682;-85
2023/12/05 10:31:17;;;;;;;24.30;12.87;;;;;;;-143.21;58.57;72976.56;5033952;28;20225;-85
2023/12/05 10:33:44;;;;;;;23.23;13.10;;;;;;;-143.21;56.82;72891.25;5033396;28;20277;-85
2023/12/05 10:36:12;;;;;;;19.87;11.10;;;;;;;-143.21;54.05;72788.13;5033928;28;20604;-86
2023/12/05 10:38:38;;;;;;;24.60;12.57;;;;;;;-143.21;51.46;72724.66;5034087;28;20226;-85
2023/12/05 10:41:05;;;;;;;23.93;12.73;;;;;;;-143.21;50.12;72681.03;5034028;28;20254;-85
2023/12/05 10:43:34;;;;;;;24.33;13.20;;;;;;;-143.21;49.44;72655.25;5033497;28;20234;-85
2023/12/05 10:46:03;;;;;;;23.17;12.77;;;;;;;-143.21;48.95;72669.13;5033800;28;20206;-85
2023/12/05 10:48:31;;;;;;;23.80;12.30;;;;;;;-143.21;48.47;72706.81;5033658;28;20221;-84
2023/12/05 10:50:58;;;;;;;23.63;11.80;;;;;;;-143.21;50.72;72774.25;5033676;28;20195;-85
2023/12/05 10:53:27;;;;;;;19.90;11.37;;;;;;;-143.21;51.96;72782.16;5033818;28;20677;-86
2023/12/05 10:55:53;;;;;;;18.53;9.90;;;;;;;-143.21;52.53;72762.34;5033539;28;20207;-84
2023/12/05 10:58:21;;;;;;;20.27;11.83;;;;;;;-143.21;51.85;72748.47;5033601;28;20194;-85
2023/12/05 11:00:50;;;;;;;19.70;10.73;;;;;;;-143.21;52.07;72742.50;5032808;28;20187;-85
2023/12/05 11:03:18;;;;;;;20.27;10.40;;;;;;;-143.21;51.48;72756.38;5033028;28;20222;-85
2023/12/05 11:05:45;;;;;;;15.23;9.07;;;;;;;-143.21;52.06;72774.25;5033162;28;20661;-85